Time;durP1;ratioP1;P1;durP2;ratioP2;P2;SDS_P1;SDS_P2;PMS_P1;PMS_P2;Temp;Humidity;BMP_temperature;BMP_pressure;BME280_temperature;BME280_humidity;BME280_pressure;Samples;Min_cycle;Max_cycle;Signal;HPM_P1;HPM_P2
2021/07/11 00:00:09;;;;;;;9.18;5.40;;;;;;;17.16;80.15;101284.97;5028187;28;20024;-69
2021/07/11 00:02:34;;;;;;;9.73;5.70;;;;;;;17.16;80.02;101287.59;5045229;28;20036;-69
2021/07/11 00:05:01;;;;;;;10.68;4.90;;;;;;;17.15;79.93;101286.00;5043288;28;20025;-69
2021/07/11 00:07:29;;;;;;;7.43;4.72;;;;;;;17.15;79.98;101286.00;5053117;28;20391;-69
2021/07/11 00:09:56;;;;;;;9.15;5.38;;;;;;;17.12;80.04;101289.78;5024457;28;20044;-69
2021/07/11 00:12:22;;;;;;;9.95;4.70;;;;;;;17.12;79.90;101287.16;5030023;28;20573;-69
2021/07/11 00:14:47;;;;;;;6.85;4.60;;;;;;;17.12;79.73;101279.31;5050716;28;20021;-69
2021/07/11 00:17:13;;;;;;;9.35;4.95;;;;;;;17.10;79.90;101276.06;5056224;28;20041;-69
2021/07/11 00:19:38;;;;;;;9.30;5.63;;;;;;;17.05;80.12;101274.00;5034287;28;20491;-68
2021/07/11 00:22:04;;;;;;;7.28;5.10;;;;;;;16.99;80.61;101273.94;5057422;28;20471;-69
2021/07/11 00:24:29;;;;;;;15.93;7.05;;;;;;;16.86;81.38;101277.25;5055977;28;20055;-69
2021/07/11 00:26:55;;;;;;;11.85;6.20;;;;;;;16.76;81.67;101272.28;5031302;28;20021;-69
2021/07/11 00:29:20;;;;;;;8.23;6.05;;;;;;;16.71;82.10;101283.31;5034098;28;20028;-68
2021/07/11 00:31:46;;;;;;;8.75;5.35;;;;;;;16.71;82.40;101285.13;5037681;28;20502;-69
2021/07/11 00:34:11;;;;;;;11.75;6.63;;;;;;;16.67;82.40;101284.69;5054131;28;20079;-69
2021/07/11 00:36:37;;;;;;;10.80;7.00;;;;;;;16.65;82.30;101291.91;5032859;28;20059;-69
2021/07/11 00:39:03;;;;;;;11.07;7.63;;;;;;;16.64;82.24;101279.81;5037355;28;20043;-68
2021/07/11 00:41:30;;;;;;;18.73;10.45;;;;;;;16.57;82.42;101289.38;5049874;28;20021;-69
2021/07/11 00:43:57;;;;;;;17.77;11.27;;;;;;;16.50;82.75;101291.94;5046831;28;20391;-69
2021/07/11 00:46:27;;;;;;;17.83;11.18;;;;;;;16.47;82.91;101294.09;5018231;28;20060;-69
2021/07/11 00:48:52;;;;;;;29.27;15.95;;;;;;;16.43;83.14;101292.84;5055989;28;20352;-69
2021/07/11 00:51:18;;;;;;;19.83;12.45;;;;;;;16.41;83.36;101307.94;5049922;28;20040;-69
2021/07/11 00:53:52;;;;;;;21.33;13.43;;;;;;;16.42;83.21;101315.56;5035987;28;20101;-69
2021/07/11 00:56:19;;;;;;;21.50;13.57;;;;;;;16.45;83.03;101320.47;5012232;28;20546;-68
2021/07/11 00:58:46;;;;;;;21.38;13.95;;;;;;;16.50;82.85;101322.50;5026898;28;20020;-68
2021/07/11 01:01:19;;;;;;;27.08;14.68;;;;;;;16.50;82.86;101317.28;5031544;28;20033;-69
2021/07/11 01:03:53;;;;;;;21.52;13.75;;;;;;;16.45;82.77;101311.81;5051088;28;20242;-69
2021/07/11 01:06:21;;;;;;;19.75;12.63;;;;;;;16.44;82.77;101304.94;5048880;28;20074;-69
2021/07/11 01:08:55;;;;;;;21.13;12.35;;;;;;;16.46;82.68;101308.16;5033399;28;20127;-69
2021/07/11 01:11:25;;;;;;;22.80;14.65;;;;;;;16.46;82.41;101311.63;5014241;28;20806;-69
2021/07/11 01:13:57;;;;;;;24.67;13.57;;;;;;;16.44;82.20;101312.78;5046203;28;20039;-69
2021/07/11 01:16:27;;;;;;;20.42;11.85;;;;;;;16.44;82.53;101308.34;5033379;28;20029;-69
2021/07/11 01:19:07;;;;;;;17.88;11.15;;;;;;;16.46;82.40;101310.78;5027762;28;20056;-69
2021/07/11 01:21:44;;;;;;;21.52;13.88;;;;;;;16.45;82.05;101315.22;5039003;28;20025;-69
2021/07/11 01:24:19;;;;;;;17.65;11.38;;;;;;;16.46;81.81;101311.63;5026889;28;20021;-69
2021/07/11 01:26:46;;;;;;;18.13;12.52;;;;;;;16.47;81.88;101312.44;5031141;28;20578;-69
2021/07/11 01:29:13;;;;;;;21.30;12.48;;;;;;;16.44;81.51;101318.00;5035052;28;20130;-69
2021/07/11 01:31:41;;;;;;;17.27;10.82;;;;;;;16.42;81.50;101318.19;5019879;28;20029;-69
2021/07/11 01:34:07;;;;;;;18.35;11.75;;;;;;;16.40;81.59;101319.38;5025669;28;20033;-69
2021/07/11 01:36:33;;;;;;;20.08;12.07;;;;;;;16.40;81.61;101322.78;5029449;28;20036;-69
2021/07/11 01:39:00;;;;;;;17.88;11.32;;;;;;;16.39;81.63;101320.34;5047091;28;20028;-69
2021/07/11 01:41:34;;;;;;;19.38;12.52;;;;;;;16.38;81.21;101313.50;5045601;28;20074;-69
2021/07/11 01:44:01;;;;;;;19.45;11.25;;;;;;;16.35;81.19;101305.03;5044971;28;20361;-69
2021/07/11 01:46:27;;;;;;;20.15;11.68;;;;;;;16.37;81.27;101309.25;5027614;28;20048;-69
2021/07/11 01:48:56;;;;;;;17.42;11.15;;;;;;;16.35;81.28;101296.38;5026291;28;20029;-69
2021/07/11 01:51:23;;;;;;;18.05;11.63;;;;;;;16.34;81.51;101297.38;5033453;28;20037;-69
2021/07/11 01:53:51;;;;;;;16.27;10.05;;;;;;;16.31;81.24;101290.69;5029249;28;20025;-69
2021/07/11 01:56:19;;;;;;;16.90;11.23;;;;;;;16.31;81.45;101300.31;5036828;28;20386;-69
2021/07/11 01:58:45;;;;;;;16.83;10.82;;;;;;;16.30;81.44;101301.34;5017906;28;20527;-69
2021/07/11 02:01:15;;;;;;;22.60;11.73;;;;;;;16.28;81.36;101311.19;5029020;28;20080;-69
2021/07/11 02:03:42;;;;;;;18.20;9.90;;;;;;;16.26;81.58;101316.59;5046254;28;20446;-69
2021/07/11 02:06:11;;;;;;;16.75;10.25;;;;;;;16.26;81.91;101313.97;5052898;28;20013;-69
2021/07/11 02:08:42;;;;;;;13.88;9.00;;;;;;;16.22;81.77;101312.72;5039231;28;20166;-69
2021/07/11 02:11:14;;;;;;;21.40;13.98;;;;;;;16.17;81.88;101309.00;5032798;28;20037;-69
2021/07/11 02:14:12;;;;;;;16.38;10.32;;;;;;;16.14;82.13;101318.84;5014196;28;20021;-69
2021/07/11 02:16:52;;;;;;;14.38;9.80;;;;;;;16.17;81.98;101324.72;5030514;28;20029;-69
2021/07/11 02:19:24;;;;;;;17.02;10.00;;;;;;;16.13;82.08;101317.22;5014133;28;20025;-69
2021/07/11 02:21:50;;;;;;;15.40;10.60;;;;;;;16.13;82.11;101317.22;5046359;28;20033;-69
2021/07/11 02:24:17;;;;;;;17.65;9.95;;;;;;;16.11;82.02;101310.53;5029686;28;20021;-68
2021/07/11 02:26:49;;;;;;;16.55;11.60;;;;;;;16.09;82.29;101312.53;5029212;28;20055;-69
2021/07/11 02:29:14;;;;;;;16.02;9.48;;;;;;;16.09;82.28;101307.31;5046247;28;20059;-69
2021/07/11 02:31:44;;;;;;;16.05;10.43;;;;;;;16.11;82.38;101315.78;5021474;28;20032;-69
2021/07/11 02:34:13;;;;;;;18.60;11.55;;;;;;;16.11;82.67;101311.34;5032658;28;20540;-69
2021/07/11 02:36:47;;;;;;;18.42;11.50;;;;;;;16.09;83.02;101309.91;5028258;28;20051;-69
2021/07/11 02:39:16;;;;;;;13.43;9.50;;;;;;;16.08;83.04;101306.47;5032999;28;20043;-68
2021/07/11 02:41:59;;;;;;;17.92;10.98;;;;;;;16.09;83.30;101307.31;5030530;28;20043;-68
2021/07/11 02:44:27;;;;;;;17.40;10.82;;;;;;;16.10;82.96;101317.56;5023514;28;20112;-69
2021/07/11 02:47:03;;;;;;;14.90;10.05;;;;;;;16.09;83.05;101315.94;5048407;28;20044;-69
2021/07/11 02:49:32;;;;;;;19.58;12.25;;;;;;;16.07;82.95;101311.91;5036643;28;20029;-69
2021/07/11 02:52:07;;;;;;;24.67;14.45;;;;;;;16.06;83.19;101308.44;5033605;28;20360;-69
2021/07/11 02:54:47;;;;;;;24.88;16.15;;;;;;;16.05;83.41;101311.25;5050288;28;20032;-69
2021/07/11 02:57:19;;;;;;;21.90;14.55;;;;;;;16.05;83.42;101319.91;5039203;28;20036;-69
2021/07/11 02:59:46;;;;;;;25.05;15.30;;;;;;;16.05;83.45;101324.31;5030169;28;20025;-69
2021/07/11 03:02:13;;;;;;;23.88;15.70;;;;;;;16.07;83.48;101331.03;5035484;28;20085;-69
2021/07/11 03:04:42;;;;;;;26.20;15.77;;;;;;;16.05;83.27;101334.78;5052173;28;20353;-69
2021/07/11 03:07:11;;;;;;;25.92;14.45;;;;;;;16.06;83.17;101337.22;5037695;28;20068;-69
2021/07/11 03:09:41;;;;;;;24.98;15.07;;;;;;;16.08;83.13;101340.47;5036681;28;20047;-69
2021/07/11 03:12:11;;;;;;;25.40;16.50;;;;;;;16.07;83.19;101332.81;5015417;28;20140;-69
2021/07/11 03:14:37;;;;;;;27.23;17.48;;;;;;;16.10;83.19;101332.44;5047758;28;20055;-69
2021/07/11 03:17:07;;;;;;;28.70;15.95;;;;;;;16.06;83.38;101332.00;5016170;28;20029;-69
2021/07/11 03:19:39;;;;;;;27.70;16.95;;;;;;;16.03;83.60;101331.53;5028878;28;20036;-69
2021/07/11 03:22:08;;;;;;;25.98;15.23;;;;;;;16.04;83.40;101335.78;5031358;28;20376;-69
2021/07/11 03:24:37;;;;;;;24.10;15.40;;;;;;;16.04;83.43;101333.19;5008455;28;20081;-69
2021/07/11 03:27:05;;;;;;;26.55;15.30;;;;;;;16.06;83.30;101334.59;5031530;28;20052;-69
2021/07/11 03:29:52;;;;;;;28.33;17.92;;;;;;;16.04;83.49;101333.97;5045161;28;20036;-69
2021/07/11 03:32:19;;;;;;;25.05;15.32;;;;;;;16.01;83.81;101336.97;5028855;28;20040;-69
2021/07/11 03:34:47;;;;;;;23.95;14.68;;;;;;;16.00;83.84;101339.75;5042898;28;20068;-69
2021/07/11 03:37:19;;;;;;;23.27;15.55;;;;;;;15.99;83.86;101341.53;5028749;28;20040;-69
2021/07/11 03:39:47;;;;;;;26.85;16.13;;;;;;;15.99;83.81;101340.75;5027133;28;20060;-69
2021/07/11 03:42:19;;;;;;;26.13;16.55;;;;;;;15.98;83.78;101339.13;5050370;28;20048;-69
2021/07/11 03:44:53;;;;;;;29.38;17.95;;;;;;;15.98;83.71;101341.75;5011969;28;20039;-69
2021/07/11 03:47:21;;;;;;;26.67;18.25;;;;;;;15.96;83.93;101347.94;5048018;28;20037;-70
2021/07/11 03:49:50;;;;;;;22.90;14.95;;;;;;;15.94;84.04;101349.13;5047526;28;20078;-68
2021/07/11 03:52:19;;;;;;;25.65;16.48;;;;;;;15.95;83.93;101351.56;5030873;28;20190;-69
2021/07/11 03:54:47;;;;;;;28.23;15.88;;;;;;;15.98;83.56;101357.44;5047257;28;20025;-69
2021/07/11 03:57:13;;;;;;;31.45;19.70;;;;;;;15.98;83.54;101360.84;5031126;28;20070;-69
2021/07/11 03:59:40;;;;;;;26.27;17.70;;;;;;;15.92;83.82;101367.59;5027279;28;20025;-68
2021/07/11 04:02:07;;;;;;;24.42;16.00;;;;;;;15.91;84.00;101368.59;5038793;28;20491;-69
2021/07/11 04:04:36;;;;;;;26.27;16.58;;;;;;;15.92;83.91;101369.41;5029332;28;20059;-69
2021/07/11 04:07:03;;;;;;;30.50;18.38;;;;;;;15.96;83.73;101374.09;5054087;28;20017;-69
2021/07/11 04:09:28;;;;;;;25.92;15.48;;;;;;;15.90;84.02;101369.59;5048332;28;20032;-68
2021/07/11 04:11:54;;;;;;;23.73;16.08;;;;;;;15.89;84.20;101370.56;5049709;28;20402;-69
2021/07/11 04:14:21;;;;;;;22.67;14.52;;;;;;;15.89;84.19;101377.59;5042811;28;20071;-69
2021/07/11 04:16:51;;;;;;;23.00;14.70;;;;;;;15.88;84.11;101365.50;5048206;28;20459;-69
2021/07/11 04:19:23;;;;;;;23.42;15.15;;;;;;;15.88;83.95;101363.72;5026938;28;20474;-70
2021/07/11 04:21:51;;;;;;;21.67;13.13;;;;;;;15.89;84.01;101356.69;5026666;28;20032;-69
2021/07/11 04:24:17;;;;;;;22.60;15.30;;;;;;;15.93;83.97;101365.78;5045286;28;20108;-70
2021/07/11 04:26:43;;;;;;;34.47;19.23;;;;;;;15.92;84.11;101361.56;5035794;28;20033;-68
2021/07/11 04:29:10;;;;;;;30.80;18.50;;;;;;;15.92;84.14;101359.75;5046961;28;20035;-69
2021/07/11 04:31:36;;;;;;;28.17;16.80;;;;;;;15.92;84.11;101358.97;5011293;28;20143;-69
2021/07/11 04:34:13;;;;;;;23.95;16.05;;;;;;;15.93;84.12;101363.19;5044305;28;20071;-69
2021/07/11 04:36:39;;;;;;;24.85;15.52;;;;;;;15.93;83.89;101360.56;5047889;28;20032;-69
2021/07/11 04:39:04;;;;;;;25.65;15.45;;;;;;;15.95;83.84;101353.34;5046182;28;20029;-69
2021/07/11 04:41:30;;;;;;;25.65;16.60;;;;;;;15.97;83.81;101351.38;5032483;28;20045;-69
2021/07/11 04:44:02;;;;;;;32.15;16.63;;;;;;;15.99;83.81;101351.19;5028998;28;20025;-70
2021/07/11 04:46:27;;;;;;;28.67;16.70;;;;;;;16.02;84.05;101354.28;5055463;28;20025;-69
2021/07/11 04:48:53;;;;;;;31.25;19.05;;;;;;;16.03;83.76;101349.84;5036761;28;20404;-69
2021/07/11 04:51:18;;;;;;;26.15;16.63;;;;;;;16.05;83.74;101340.84;5051903;28;20024;-70
2021/07/11 04:53:44;;;;;;;28.42;16.60;;;;;;;16.07;83.71;101348.53;5045927;28;20478;-69
2021/07/11 04:56:10;;;;;;;28.05;17.25;;;;;;;16.09;83.93;101352.56;5037272;28;20028;-69
2021/07/11 04:58:35;;;;;;;38.42;20.92;;;;;;;16.12;83.94;101349.59;5035218;28;20056;-70
2021/07/11 05:01:01;;;;;;;37.70;22.65;;;;;;;16.14;84.19;101339.78;5045391;28;20036;-69
2021/07/11 05:03:26;;;;;;;33.53;19.15;;;;;;;16.15;84.47;101344.00;5031188;28;20399;-69
2021/07/11 05:05:52;;;;;;;34.28;19.70;;;;;;;16.17;84.76;101346.44;5038610;28;20033;-70
2021/07/11 05:08:17;;;;;;;39.05;21.45;;;;;;;16.20;84.89;101346.09;5034011;28;20110;-69
2021/07/11 05:10:43;;;;;;;39.42;23.95;;;;;;;16.21;84.88;101345.09;5032281;28;20487;-69
2021/07/11 05:13:08;;;;;;;40.83;23.20;;;;;;;16.26;84.73;101341.94;5006196;28;20029;-70
2021/07/11 05:15:34;;;;;;;41.33;23.50;;;;;;;16.29;84.66;101352.88;5027029;28;20029;-69
2021/07/11 05:17:59;;;;;;;47.20;26.25;;;;;;;16.33;84.79;101350.69;5038800;28;20035;-70
2021/07/11 05:20:25;;;;;;;42.50;23.85;;;;;;;16.37;84.69;101343.28;5043893;28;20063;-70
2021/07/11 05:22:50;;;;;;;56.35;29.55;;;;;;;16.45;84.64;101344.00;5028396;28;20028;-70
2021/07/11 05:25:16;;;;;;;52.20;26.98;;;;;;;16.44;84.62;101347.59;5029130;28;20523;-70
2021/07/11 05:27:41;;;;;;;48.90;27.10;;;;;;;16.44;84.96;101345.00;5030129;28;20056;-69
2021/07/11 05:30:07;;;;;;;62.50;33.58;;;;;;;16.44;84.91;101344.19;5031229;28;20131;-70
2021/07/11 05:32:33;;;;;;;53.63;27.88;;;;;;;16.45;85.13;101345.81;5026538;28;20384;-69
2021/07/11 05:34:58;;;;;;;56.63;28.20;;;;;;;16.49;85.20;101347.06;5038496;28;20032;-69
2021/07/11 05:37:24;;;;;;;62.00;31.55;;;;;;;16.52;84.99;101346.72;5048673;28;20294;-70
2021/07/11 05:39:50;;;;;;;70.18;34.92;;;;;;;16.58;84.97;101351.22;5046527;28;20680;-70
2021/07/11 05:42:15;;;;;;;61.50;31.20;;;;;;;16.60;85.17;101362.31;5050821;28;20033;-70
2021/07/11 05:44:41;;;;;;;69.85;34.25;;;;;;;16.64;85.04;101354.91;5030538;28;20020;-70
2021/07/11 05:47:06;;;;;;;60.60;30.38;;;;;;;16.67;85.05;101355.38;5049063;28;20021;-70
2021/07/11 05:49:32;;;;;;;70.80;35.88;;;;;;;16.69;85.08;101368.28;5027097;28;20407;-69
2021/07/11 05:51:57;;;;;;;76.25;36.63;;;;;;;16.68;85.36;101371.88;5031936;28;20036;-69
2021/07/11 05:54:23;;;;;;;83.45;38.53;;;;;;;16.67;85.33;101375.47;5039378;28;20543;-69
2021/07/11 05:56:48;;;;;;;63.42;32.75;;;;;;;16.65;85.52;101375.69;5032527;28;20056;-70
2021/07/11 05:59:14;;;;;;;65.95;33.88;;;;;;;16.67;85.53;101372.88;5047686;28;20037;-69
2021/07/11 06:01:39;;;;;;;65.28;32.08;;;;;;;16.64;85.72;101368.00;5049149;28;20029;-69
2021/07/11 06:04:05;;;;;;;91.03;42.47;;;;;;;16.70;84.95;101370.69;5039299;28;20070;-69
2021/07/11 06:06:30;;;;;;;81.95;37.05;;;;;;;16.68;85.13;101362.22;5040513;28;20036;-69
2021/07/11 06:08:56;;;;;;;87.22;41.47;;;;;;;16.58;84.56;101369.56;5053799;28;20043;-69
2021/07/11 06:11:21;;;;;;;89.65;39.60;;;;;;;16.57;85.13;101365.28;5051773;28;20102;-69
2021/07/11 06:13:47;;;;;;;84.25;36.08;;;;;;;16.56;85.48;101374.16;5056494;28;20024;-69
2021/07/11 06:16:12;;;;;;;84.70;38.55;;;;;;;16.58;85.44;101382.63;5050737;28;20301;-69
2021/07/11 06:18:38;;;;;;;78.45;34.65;;;;;;;16.63;85.40;101376.84;5051158;28;20079;-69
2021/07/11 06:21:03;;;;;;;78.28;37.72;;;;;;;16.69;85.26;101381.38;5046500;28;20523;-69
2021/07/11 06:23:29;;;;;;;83.20;39.05;;;;;;;16.73;85.20;101386.06;5029754;28;20404;-69
2021/07/11 06:25:54;;;;;;;88.25;40.05;;;;;;;16.68;85.06;101387.59;5047827;28;20074;-69
2021/07/11 06:28:20;;;;;;;83.43;37.65;;;;;;;16.68;85.28;101385.78;5053087;28;20035;-69
2021/07/11 06:30:45;;;;;;;71.28;32.80;;;;;;;16.70;85.08;101383.78;5049804;28;20525;-69
2021/07/11 06:33:11;;;;;;;86.82;40.05;;;;;;;16.71;84.78;101380.19;5043568;28;20475;-69
2021/07/11 06:35:36;;;;;;;79.47;37.28;;;;;;;16.79;85.02;101387.13;5048435;28;20020;-69
2021/07/11 06:38:02;;;;;;;78.90;37.70;;;;;;;16.77;84.92;101394.34;5050636;28;20040;-69
2021/07/11 06:40:27;;;;;;;82.20;36.60;;;;;;;16.76;85.30;101394.53;5029062;28;20274;-69
2021/07/11 06:42:54;;;;;;;72.43;32.42;;;;;;;16.76;85.54;101397.97;5052341;28;20044;-69
2021/07/11 06:45:20;;;;;;;76.10;34.30;;;;;;;16.80;85.45;101388.78;5050558;28;20083;-69
2021/07/11 06:47:45;;;;;;;78.15;36.25;;;;;;;16.89;84.83;101395.53;5038527;28;20032;-69
2021/07/11 06:50:14;;;;;;;78.53;37.30;;;;;;;16.92;84.62;101389.94;5040044;28;20016;-69
2021/07/11 06:52:40;;;;;;;61.95;31.90;;;;;;;16.96;84.61;101395.63;5052869;28;20032;-69
2021/07/11 06:55:07;;;;;;;60.42;29.55;;;;;;;17.05;84.73;101391.91;5055331;28;20494;-69
2021/07/11 06:57:33;;;;;;;63.60;32.05;;;;;;;17.08;84.54;101386.31;5059426;28;20107;-68
2021/07/11 06:59:59;;;;;;;67.03;32.85;;;;;;;17.17;84.64;101387.00;5033568;28;20051;-69
2021/07/11 07:02:25;;;;;;;78.35;36.60;;;;;;;17.31;83.79;101390.56;5043516;28;20036;-69
2021/07/11 07:04:50;;;;;;;72.68;35.58;;;;;;;17.57;82.86;101394.44;5029153;28;20021;-69
2021/07/11 07:07:16;;;;;;;66.03;34.40;;;;;;;17.54;82.65;101392.19;5028351;28;20040;-69
2021/07/11 07:09:42;;;;;;;74.90;36.70;;;;;;;17.55;82.01;101401.69;5026317;28;20052;-68
2021/07/11 07:12:07;;;;;;;67.88;34.30;;;;;;;17.49;82.58;101405.88;5042133;28;20060;-68
2021/07/11 07:14:33;;;;;;;59.83;31.52;;;;;;;17.50;81.94;101405.69;5043883;28;20176;-69
2021/07/11 07:17:00;;;;;;;71.18;33.70;;;;;;;17.49;82.50;101405.88;5034203;28;20032;-68
2021/07/11 07:19:25;;;;;;;74.13;34.33;;;;;;;17.53;82.39;101412.34;5017477;28;20036;-68
2021/07/11 07:21:51;;;;;;;66.10;35.30;;;;;;;17.74;80.93;101416.78;5026883;28;20036;-68
2021/07/11 07:24:17;;;;;;;67.60;32.15;;;;;;;17.67;81.38;101414.09;5014733;28;20032;-69
2021/07/11 07:26:43;;;;;;;69.35;34.70;;;;;;;17.82;81.08;101414.03;5045578;28;20029;-69
2021/07/11 07:29:09;;;;;;;58.97;30.70;;;;;;;17.76;81.19;101424.47;5026770;28;20510;-68
2021/07/11 07:31:36;;;;;;;66.05;34.85;;;;;;;17.69;81.27;101425.22;5046242;28;20461;-69
2021/07/11 07:34:02;;;;;;;59.25;31.15;;;;;;;17.56;81.62;101432.97;5045414;28;20029;-69
2021/07/11 07:36:28;;;;;;;67.30;33.22;;;;;;;17.57;81.15;101429.31;5028479;28;20037;-69
2021/07/11 07:38:54;;;;;;;55.22;29.52;;;;;;;17.51;81.12;101430.88;5026531;28;20039;-69
2021/07/11 07:41:19;;;;;;;58.38;28.45;;;;;;;17.40;81.38;101439.25;5027792;28;20071;-69
2021/07/11 07:43:45;;;;;;;64.47;33.55;;;;;;;17.45;81.49;101442.13;5011056;28;20475;-69
2021/07/11 07:46:10;;;;;;;58.78;28.20;;;;;;;17.42;81.76;101444.31;5044689;28;20067;-68
2021/07/11 07:48:36;;;;;;;51.83;27.50;;;;;;;17.47;81.27;101440.13;5048240;28;20029;-69
2021/07/11 07:51:01;;;;;;;55.72;27.17;;;;;;;17.44;81.12;101450.16;5045296;28;20391;-69
2021/07/11 07:53:27;;;;;;;54.08;27.85;;;;;;;17.42;81.20;101441.69;5044706;28;20033;-69
2021/07/11 07:55:52;;;;;;;51.17;29.50;;;;;;;17.56;80.84;101440.81;5047523;28;20479;-69
2021/07/11 07:58:18;;;;;;;54.72;31.17;;;;;;;17.56;80.76;101442.66;5046435;28;20025;-68
2021/07/11 08:00:43;;;;;;;49.25;26.98;;;;;;;17.57;80.82;101442.44;5023580;28;20459;-69
2021/07/11 08:03:09;;;;;;;43.35;25.98;;;;;;;17.74;80.42;101450.06;5012627;28;20095;-68
2021/07/11 08:05:34;;;;;;;52.92;26.58;;;;;;;17.93;80.18;101443.41;5016288;28;20498;-69
2021/07/11 08:08:00;;;;;;;50.63;27.75;;;;;;;18.07;79.77;101448.56;5042516;28;20024;-69
2021/07/11 08:10:26;;;;;;;53.60;29.02;;;;;;;18.14;79.59;101443.38;5023188;28;20021;-69
2021/07/11 08:12:51;;;;;;;47.47;26.60;;;;;;;18.24;79.04;101438.59;5022712;28;20040;-70
2021/07/11 08:15:17;;;;;;;55.50;29.65;;;;;;;18.32;77.91;101448.16;5044634;28;20047;-69
2021/07/11 08:17:47;;;;;;;54.97;28.90;;;;;;;18.53;77.12;101442.00;5041962;28;20330;-69
2021/07/11 08:20:15;;;;;;;50.42;27.00;;;;;;;19.01;76.52;101439.47;5010581;28;20377;-68
2021/07/11 08:22:41;;;;;;;48.67;27.88;;;;;;;19.37;75.67;101441.00;5027561;28;20032;-69
2021/07/11 08:25:07;;;;;;;49.08;28.67;;;;;;;19.54;73.77;101433.53;5047030;28;20461;-69
2021/07/11 08:27:37;;;;;;;44.50;26.48;;;;;;;20.01;72.20;101434.41;5039855;28;20104;-70
2021/07/11 08:30:05;;;;;;;38.22;23.20;;;;;;;20.41;71.97;101431.72;5043577;28;20537;-68
2021/07/11 08:32:31;;;;;;;42.75;24.67;;;;;;;20.68;71.24;101442.25;5033718;28;20051;-68
2021/07/11 08:34:56;;;;;;;40.55;24.48;;;;;;;20.73;69.83;101433.69;5049602;28;20029;-69
2021/07/11 08:37:22;;;;;;;38.42;23.35;;;;;;;21.18;68.40;101429.22;5032173;28;20025;-69
2021/07/11 08:39:48;;;;;;;35.08;21.65;;;;;;;21.52;66.37;101421.97;5057246;28;20035;-69
2021/07/11 08:42:13;;;;;;;40.33;24.13;;;;;;;21.83;64.84;101427.41;5016048;28;20028;-69
2021/07/11 08:44:39;;;;;;;32.42;21.13;;;;;;;21.64;64.60;101432.63;5033806;28;20028;-68
2021/07/11 08:47:05;;;;;;;31.90;19.73;;;;;;;21.42;66.64;101436.59;5046730;28;20037;-69
2021/07/11 08:49:30;;;;;;;30.02;20.10;;;;;;;21.19;66.74;101428.22;5049967;28;20024;-68
2021/07/11 08:51:58;;;;;;;32.92;20.45;;;;;;;21.57;64.10;101429.25;5020040;28;20078;-69
2021/07/11 08:54:25;;;;;;;24.23;17.35;;;;;;;21.47;65.92;101437.59;5035264;28;20037;-68
2021/07/11 08:57:01;;;;;;;35.28;22.27;;;;;;;21.52;62.57;101429.06;5051234;28;20801;-69
2021/07/11 08:59:28;;;;;;;28.45;18.42;;;;;;;21.56;63.08;101424.97;5028289;28;20061;-69
2021/07/11 09:01:56;;;;;;;33.22;21.73;;;;;;;21.33;63.39;101431.59;5048891;28;20075;-69
2021/07/11 09:04:22;;;;;;;35.15;20.25;;;;;;;21.40;63.30;101439.47;5014093;28;20099;-69
2021/07/11 09:06:52;;;;;;;26.52;18.40;;;;;;;21.54;62.95;101441.00;5030798;28;20021;-68
2021/07/11 09:09:43;;;;;;;25.58;16.85;;;;;;;22.02;61.24;101436.19;5049272;28;20430;-69
2021/07/11 09:12:11;;;;;;;25.58;16.88;;;;;;;22.59;60.91;101441.34;5048511;28;20063;-69
2021/07/11 09:14:39;;;;;;;27.35;18.13;;;;;;;22.95;59.90;101445.81;5034260;28;20028;-69
2021/07/11 09:17:06;;;;;;;24.77;16.25;;;;;;;22.96;58.60;101441.31;5036403;28;20048;-69
2021/07/11 09:19:34;;;;;;;25.65;16.35;;;;;;;23.35;58.03;101439.19;5045879;28;20032;-70
2021/07/11 09:22:06;;;;;;;21.98;14.80;;;;;;;22.97;57.96;101443.75;5039371;28;20391;-69
2021/07/11 09:24:33;;;;;;;25.88;15.52;;;;;;;22.61;59.77;101444.59;5057229;28;20060;-70
2021/07/11 09:27:12;;;;;;;20.08;13.65;;;;;;;22.68;58.53;101442.69;5058499;28;20020;-69
2021/07/11 09:29:39;;;;;;;22.27;15.02;;;;;;;22.50;58.90;101444.28;5039509;28;20033;-70
2021/07/11 09:32:06;;;;;;;26.40;16.10;;;;;;;22.00;61.54;101446.97;5040934;28;20603;-70
2021/07/11 09:34:32;;;;;;;21.20;14.40;;;;;;;21.86;61.63;101442.81;5015943;28;20032;-69
2021/07/11 09:37:13;;;;;;;17.38;12.05;;;;;;;22.03;61.82;101446.53;5037966;28;20032;-69
2021/07/11 09:39:54;;;;;;;18.35;12.98;;;;;;;23.04;59.71;101439.22;5037174;28;20029;-70
2021/07/11 09:42:29;;;;;;;18.92;12.65;;;;;;;23.66;54.67;101438.13;5052567;28;20029;-69
2021/07/11 09:44:55;;;;;;;16.85;10.32;;;;;;;23.39;56.55;101429.78;5043351;28;20044;-71
2021/07/11 09:47:23;;;;;;;15.10;10.82;;;;;;;23.11;57.76;101439.94;5043955;28;20067;-69
2021/07/11 09:50:20;;;;;;;15.30;8.98;;;;;;;22.88;58.92;101437.94;5031130;28;20072;-69
2021/07/11 09:52:48;;;;;;;13.75;9.88;;;;;;;22.99;57.54;101435.59;5041613;28;20526;-70
2021/07/11 09:55:21;;;;;;;12.32;9.05;;;;;;;23.54;55.90;101446.03;5051397;28;20039;-69
2021/07/11 09:57:58;;;;;;;15.73;9.10;;;;;;;23.99;54.42;101439.44;5059429;28;20037;-69
2021/07/11 10:00:26;;;;;;;13.05;7.50;;;;;;;23.95;57.34;101441.75;5057262;28;20547;-70
2021/07/11 10:02:57;;;;;;;8.45;6.55;;;;;;;23.34;53.42;101438.41;5028047;28;20040;-70
2021/07/11 10:05:23;;;;;;;10.77;6.57;;;;;;;22.98;56.03;101444.53;5024905;28;20503;-70
2021/07/11 10:07:50;;;;;;;8.60;5.00;;;;;;;22.65;58.28;101441.28;5040484;28;20063;-70
2021/07/11 10:10:18;;;;;;;8.73;5.30;;;;;;;23.24;56.44;101438.13;5043021;28;20394;-68
2021/07/11 10:12:45;;;;;;;8.50;5.93;;;;;;;23.84;54.68;101431.94;5033701;28;20029;-69
2021/07/11 10:15:13;;;;;;;8.65;4.25;;;;;;;24.18;51.07;101425.03;5039424;28;20016;-70
2021/07/11 10:17:44;;;;;;;5.10;3.95;;;;;;;24.21;52.29;101429.88;5050316;28;20029;-69
2021/07/11 10:20:11;;;;;;;4.30;3.60;;;;;;;24.61;52.92;101434.44;5038440;28;20490;-69
2021/07/11 10:22:44;;;;;;;5.72;3.70;;;;;;;24.73;52.40;101434.41;5051974;28;20028;-71
2021/07/11 10:25:12;;;;;;;4.30;3.10;;;;;;;25.03;51.71;101428.06;5054198;28;20052;-70
2021/07/11 10:27:38;;;;;;;3.63;3.28;;;;;;;24.89;52.67;101440.81;5040231;28;20016;-68
2021/07/11 10:30:04;;;;;;;4.70;3.25;;;;;;;24.65;49.22;101440.09;5041965;28;20094;-70
2021/07/11 10:32:33;;;;;;;3.45;2.72;;;;;;;24.75;51.43;101440.31;5033473;28;20032;-70
2021/07/11 10:35:18;;;;;;;4.80;2.83;;;;;;;24.91;51.75;101435.28;5063129;28;20111;-70
2021/07/11 10:37:53;;;;;;;5.40;2.38;;;;;;;24.92;48.99;101443.00;5038064;28;20032;-70
2021/07/11 10:40:21;;;;;;;2.40;2.13;;;;;;;25.10;50.27;101443.88;5051802;28;20032;-70
2021/07/11 10:42:48;;;;;;;4.93;2.63;;;;;;;25.18;49.92;101443.47;5032212;28;20029;-70
2021/07/11 10:45:15;;;;;;;3.00;2.38;;;;;;;25.15;51.65;101436.81;5033918;28;20032;-70
2021/07/11 10:47:41;;;;;;;3.05;2.40;;;;;;;25.43;50.21;101436.00;5054691;28;20059;-71
2021/07/11 10:50:25;;;;;;;3.30;2.45;;;;;;;25.38;50.29;101425.28;5041993;28;20024;-70
2021/07/11 10:52:51;;;;;;;5.40;2.17;;;;;;;25.45;49.66;101431.25;5054401;28;20519;-70
2021/07/11 10:55:18;;;;;;;2.90;2.20;;;;;;;24.87;49.72;101421.69;5032004;28;20135;-70
2021/07/11 10:57:44;;;;;;;2.58;2.30;;;;;;;24.66;52.30;101425.81;5030161;28;20039;-70
2021/07/11 11:00:11;;;;;;;3.65;2.65;;;;;;;25.05;49.96;101428.63;5052578;28;20029;-69
2021/07/11 11:02:37;;;;;;;2.60;2.35;;;;;;;24.83;51.47;101428.53;5046161;28;20611;-71
2021/07/11 11:05:13;;;;;;;2.95;2.33;;;;;;;24.68;50.99;101435.13;5015400;28;20036;-70
2021/07/11 11:07:48;;;;;;;2.72;1.80;;;;;;;24.91;50.18;101428.13;5026478;28;20071;-70
2021/07/11 11:10:31;;;;;;;2.45;2.05;;;;;;;24.81;50.07;101438.56;5036620;28;20132;-70
2021/07/11 11:13:05;;;;;;;2.83;2.17;;;;;;;24.71;51.22;101433.84;5036687;28;20039;-69
2021/07/11 11:15:36;;;;;;;2.28;2.00;;;;;;;24.73;51.61;101433.59;5047142;28;20075;-70